createdAt,value
2023-01-19T00:02:19.669Z,25.77
2023-01-19T00:04:52.272Z,32.35
2023-01-19T00:07:19.685Z,26.13
2023-01-19T00:09:46.746Z,36.35
2023-01-19T00:12:13.722Z,26.52
2023-01-19T00:14:40.765Z,35.15
2023-01-19T00:17:07.859Z,39.17
2023-01-19T00:19:34.976Z,24.80
2023-01-19T00:22:01.984Z,19.42
2023-01-19T00:24:29.112Z,22.73
2023-01-19T00:26:56.959Z,39.00
2023-01-19T00:29:24.233Z,41.55
2023-01-19T00:31:51.412Z,34.72
2023-01-19T00:34:18.687Z,26.05
2023-01-19T00:36:45.793Z,35.13
2023-01-19T00:39:12.917Z,30.88
2023-01-19T00:41:58.750Z,24.75
2023-01-19T00:44:25.803Z,28.88
2023-01-19T00:46:52.773Z,29.95
2023-01-19T00:49:19.923Z,23.90
2023-01-19T00:51:47.257Z,27.58
2023-01-19T00:54:14.776Z,22.83
2023-01-19T00:56:41.897Z,18.85
2023-01-19T00:59:09.061Z,20.95
2023-01-19T01:01:45.472Z,29.70
2023-01-19T01:04:14.454Z,34.00
2023-01-19T01:06:41.527Z,20.63
2023-01-19T01:09:12.174Z,32.88
2023-01-19T01:11:40.577Z,21.10
2023-01-19T01:14:08.631Z,25.70
2023-01-19T01:16:35.982Z,28.45
2023-01-19T01:19:03.029Z,27.45
2023-01-19T01:21:30.227Z,33.60
2023-01-19T01:23:57.275Z,34.33
2023-01-19T01:26:26.387Z,33.80
2023-01-19T01:28:54.164Z,41.85
2023-01-19T01:31:21.301Z,27.55
2023-01-19T01:33:48.514Z,21.00
2023-01-19T01:36:15.910Z,36.35
2023-01-19T01:38:43.055Z,36.28
2023-01-19T01:41:11.040Z,19.63
2023-01-19T01:43:48.689Z,39.90
2023-01-19T01:46:17.472Z,37.28
2023-01-19T01:48:52.014Z,22.40
2023-01-19T01:51:25.631Z,27.48
2023-01-19T01:54:18.135Z,33.13
2023-01-19T01:56:51.585Z,26.80
2023-01-19T01:59:30.071Z,24.10
2023-01-19T02:02:19.154Z,33.92
2023-01-19T02:04:50.603Z,35.50
2023-01-19T02:07:45.589Z,35.30
2023-01-19T02:10:30.997Z,33.63
2023-01-19T02:13:16.980Z,39.45
2023-01-19T02:15:44.982Z,43.22
2023-01-19T02:18:12.262Z,36.33
2023-01-19T02:20:43.567Z,21.08
2023-01-19T02:23:17.554Z,39.50
2023-01-19T02:25:44.738Z,30.20
2023-01-19T02:28:12.180Z,35.60
2023-01-19T02:30:41.284Z,24.73
2023-01-19T02:33:08.631Z,36.83
2023-01-19T02:35:38.790Z,27.98
2023-01-19T02:38:10.607Z,30.15
2023-01-19T02:51:17.424Z,23.23
2023-01-19T02:54:12.476Z,28.88
2023-01-19T02:56:42.275Z,41.88
2023-01-19T02:59:24.776Z,30.98
2023-01-19T03:01:57.821Z,45.50
2023-01-19T03:04:47.680Z,26.02
2023-01-19T03:07:31.089Z,35.22
2023-01-19T03:10:21.617Z,24.98
2023-01-19T03:13:15.042Z,34.20
2023-01-19T03:19:40.771Z,35.33
2023-01-19T03:22:28.551Z,36.33
2023-01-19T03:25:12.578Z,36.35
2023-01-19T03:34:45.716Z,25.67
2023-01-19T03:37:32.592Z,19.65
2023-01-19T03:40:09.104Z,19.90
2023-01-19T03:42:38.386Z,30.75
2023-01-19T03:45:06.317Z,34.55
2023-01-19T03:47:34.422Z,22.38
2023-01-19T03:50:06.440Z,22.67
2023-01-19T03:52:36.527Z,26.92
2023-01-19T03:55:05.574Z,29.88
2023-01-19T03:57:32.843Z,19.85
2023-01-19T04:00:00.032Z,20.35
2023-01-19T04:02:27.447Z,28.52
2023-01-19T04:04:55.912Z,17.85
2023-01-19T04:07:22.939Z,31.25
2023-01-19T04:09:50.187Z,19.90
2023-01-19T04:12:17.181Z,33.03
2023-01-19T04:14:44.268Z,28.13
2023-01-19T04:17:12.067Z,24.48
2023-01-19T04:19:39.140Z,28.88
2023-01-19T04:22:06.630Z,21.23
2023-01-19T04:24:33.517Z,17.02
2023-01-19T04:27:00.886Z,33.33
2023-01-19T04:29:27.989Z,27.40
2023-01-19T04:31:54.923Z,22.63
2023-01-19T04:34:22.001Z,28.20
2023-01-19T04:36:51.426Z,23.00
2023-01-19T04:39:18.415Z,22.38
2023-01-19T04:44:57.342Z,21.83
2023-01-19T04:47:24.493Z,26.13
2023-01-19T04:53:05.483Z,29.50
2023-01-19T04:56:15.960Z,22.23
2023-01-19T04:58:46.230Z,31.98
2023-01-19T05:01:13.457Z,27.73
2023-01-19T05:03:40.905Z,24.35
2023-01-19T05:06:08.110Z,36.20
2023-01-19T05:08:35.183Z,25.05
2023-01-19T05:11:02.629Z,28.58
2023-01-19T05:13:29.771Z,35.55
2023-01-19T05:15:57.058Z,20.23
2023-01-19T05:18:24.462Z,27.33
2023-01-19T05:23:32.915Z,20.58
2023-01-19T05:26:02.175Z,29.52
2023-01-19T05:28:30.680Z,23.77
2023-01-19T05:30:57.916Z,20.30
2023-01-19T05:33:25.437Z,29.77
2023-01-19T05:35:53.484Z,33.72
2023-01-19T05:38:34.300Z,25.80
2023-01-19T05:41:02.591Z,33.55
2023-01-19T05:43:29.771Z,26.25
2023-01-19T05:45:57.022Z,24.55
2023-01-19T05:48:24.099Z,27.35
2023-01-19T05:50:51.643Z,31.95
2023-01-19T05:53:18.787Z,25.05
2023-01-19T05:55:46.034Z,45.47
2023-01-19T05:58:13.120Z,37.33
2023-01-19T06:00:50.495Z,34.60
2023-01-19T06:03:52.207Z,30.25
2023-01-19T06:09:32.101Z,25.95
2023-01-19T06:11:59.928Z,28.40
2023-01-19T06:20:19.015Z,27.67
2023-01-19T06:25:55.778Z,43.33
2023-01-19T06:28:23.823Z,37.28
2023-01-19T06:30:52.362Z,38.45
2023-01-19T06:33:20.176Z,26.30
2023-01-19T06:35:49.033Z,45.83
2023-01-19T06:38:19.895Z,29.98
2023-01-19T06:40:54.338Z,36.25
2023-01-19T06:43:22.253Z,32.03
2023-01-19T06:45:50.339Z,40.00
2023-01-19T06:48:18.376Z,48.60
2023-01-19T06:50:51.172Z,24.67
2023-01-19T06:53:32.009Z,29.08
2023-01-19T06:56:18.811Z,44.50
2023-01-19T06:59:57.951Z,39.75
2023-01-19T07:09:00.754Z,41.63
2023-01-19T07:12:12.374Z,48.30
2023-01-19T07:14:39.352Z,58.35
2023-01-19T07:17:06.568Z,36.45
2023-01-19T07:19:35.071Z,58.20
2023-01-19T07:22:03.311Z,62.15
2023-01-19T07:24:38.161Z,66.30
2023-01-19T07:27:05.654Z,57.83
2023-01-19T07:29:32.747Z,69.20
2023-01-19T07:32:00.011Z,47.55
2023-01-19T07:34:27.249Z,61.53
2023-01-19T07:36:56.190Z,57.35
2023-01-19T07:39:23.522Z,65.63
2023-01-19T07:41:50.770Z,46.35
2023-01-19T07:44:18.048Z,51.35
2023-01-19T07:46:45.083Z,61.72
2023-01-19T07:49:12.817Z,27.40
2023-01-19T07:51:39.862Z,39.50
2023-01-19T07:54:08.631Z,39.38
2023-01-19T07:56:50.017Z,37.45
2023-01-19T08:02:30.919Z,39.80
2023-01-19T08:05:08.816Z,37.08
2023-01-19T08:13:35.625Z,64.70
2023-01-19T08:16:02.829Z,70.00
2023-01-19T08:21:39.742Z,65.55
2023-01-19T08:24:07.663Z,46.10
2023-01-19T08:26:44.700Z,76.47
2023-01-19T08:32:44.536Z,41.67
2023-01-19T08:35:26.429Z,59.70
2023-01-19T08:37:54.275Z,45.40
2023-01-19T08:40:28.816Z,45.47
2023-01-19T08:43:11.319Z,36.08
2023-01-19T08:45:48.281Z,37.22
2023-01-19T08:48:17.865Z,65.43
2023-01-19T08:50:49.181Z,79.70
2023-01-19T08:53:17.158Z,80.82
2023-01-19T08:55:44.257Z,67.47
2023-01-19T08:58:11.278Z,90.55
2023-01-19T09:00:39.804Z,56.80
2023-01-19T09:03:10.017Z,75.63
2023-01-19T09:05:39.046Z,57.95
2023-01-19T09:08:11.986Z,88.35
2023-01-19T09:10:40.451Z,34.30
2023-01-19T09:13:11.158Z,36.80
2023-01-19T09:15:42.476Z,56.30
2023-01-19T09:18:13.745Z,23.80
2023-01-19T09:20:42.889Z,81.63
2023-01-19T09:23:11.608Z,50.10
2023-01-19T09:25:39.759Z,39.22
2023-01-19T09:28:09.341Z,51.95
2023-01-19T09:30:37.942Z,60.53
2023-01-19T09:33:07.604Z,95.75
2023-01-19T09:35:35.198Z,58.92
2023-01-19T09:38:02.644Z,92.18
2023-01-19T09:40:30.424Z,93.47
2023-01-19T09:43:12.471Z,100.70
2023-01-19T09:45:59.329Z,52.92
2023-01-19T09:48:26.264Z,89.05
2023-01-19T09:50:56.776Z,85.07
2023-01-19T09:53:52.368Z,99.60
2023-01-19T09:56:20.710Z,64.93
2023-01-19T09:58:49.574Z,88.25
2023-01-19T10:01:55.273Z,36.22
2023-01-19T10:04:34.267Z,69.57
2023-01-19T10:07:10.433Z,76.20
2023-01-19T10:09:51.741Z,49.50
2023-01-19T10:12:44.554Z,53.30
2023-01-19T10:15:33.355Z,64.93
2023-01-19T10:18:20.706Z,77.80
2023-01-19T10:20:56.798Z,100.25
2023-01-19T10:23:36.454Z,57.33
2023-01-19T10:26:12.180Z,27.47
2023-01-19T10:28:40.928Z,66.53
2023-01-19T10:31:09.925Z,99.07
2023-01-19T10:33:38.732Z,77.55
2023-01-19T10:36:15.583Z,89.65
2023-01-19T10:38:42.692Z,114.57
2023-01-19T10:41:30.580Z,114.78
2023-01-19T10:44:02.915Z,111.30
2023-01-19T10:46:38.810Z,57.15
2023-01-19T10:49:06.973Z,61.95
2023-01-19T10:51:34.198Z,90.38
2023-01-19T10:54:04.551Z,95.38
2023-01-19T10:59:02.181Z,109.57
2023-01-19T11:01:31.327Z,46.70
2023-01-19T11:04:05.857Z,111.40
2023-01-19T11:06:34.624Z,59.15
2023-01-19T11:09:20.181Z,62.17
2023-01-19T11:11:53.199Z,81.13
2023-01-19T11:14:23.358Z,98.47
2023-01-19T11:16:55.066Z,51.63
2023-01-19T11:19:30.332Z,101.68
2023-01-19T11:22:24.941Z,57.53
2023-01-19T11:24:52.349Z,74.13
2023-01-19T11:27:21.388Z,49.95
2023-01-19T11:30:05.382Z,85.22
2023-01-19T11:32:35.841Z,71.60
2023-01-19T11:35:28.941Z,32.10
2023-01-19T11:38:27.407Z,48.65
2023-01-19T11:40:59.297Z,58.28
2023-01-19T11:43:43.583Z,83.32
2023-01-19T11:46:16.592Z,88.72
2023-01-19T11:48:56.801Z,81.47
2023-01-19T11:51:28.759Z,91.25
2023-01-19T11:53:55.860Z,57.90
2023-01-19T11:56:33.519Z,32.20
2023-01-19T11:59:14.165Z,92.25
2023-01-19T12:01:55.029Z,91.03
2023-01-19T12:04:41.349Z,86.60
2023-01-19T12:07:12.970Z,66.93
2023-01-19T12:09:48.831Z,84.15
2023-01-19T12:12:33.401Z,85.90
2023-01-19T12:15:03.538Z,90.63
2023-01-19T12:20:15.143Z,94.20
2023-01-19T12:22:50.944Z,43.40
2023-01-19T12:25:43.291Z,85.05
2023-01-19T12:28:14.574Z,73.47
2023-01-19T12:33:31.596Z,73.78
2023-01-19T12:36:07.316Z,80.13
2023-01-19T12:38:52.968Z,82.03
2023-01-19T12:41:33.655Z,85.43
2023-01-19T12:44:09.944Z,71.80
2023-01-19T12:47:13.094Z,95.50
2023-01-19T12:49:44.510Z,65.95
2023-01-19T12:52:31.014Z,63.95
2023-01-19T12:55:13.249Z,93.30
2023-01-19T12:57:46.847Z,50.03
2023-01-19T13:00:23.240Z,111.22
2023-01-19T13:02:55.053Z,46.60
2023-01-19T13:05:42.111Z,74.72
2023-01-19T13:08:09.182Z,39.92
2023-01-19T13:11:02.373Z,79.65
2023-01-19T13:13:30.781Z,77.68
2023-01-19T13:19:22.333Z,76.13
2023-01-19T13:21:49.791Z,64.13
2023-01-19T13:24:22.603Z,80.22
2023-01-19T13:26:49.827Z,74.57
2023-01-19T13:29:40.525Z,98.55
2023-01-19T13:32:18.933Z,51.55
2023-01-19T13:34:52.418Z,44.60
2023-01-19T13:37:23.215Z,44.70
2023-01-19T13:39:53.999Z,33.00
2023-01-19T13:42:35.733Z,63.45
2023-01-19T13:45:17.442Z,65.05
2023-01-19T13:47:47.359Z,74.50
2023-01-19T13:50:22.686Z,49.55
2023-01-19T13:52:51.557Z,80.70
2023-01-19T13:55:20.677Z,72.80
2023-01-19T13:57:49.710Z,58.53
2023-01-19T14:00:18.407Z,50.90
2023-01-19T14:03:11.793Z,80.07
2023-01-19T14:05:43.604Z,51.22
2023-01-19T14:08:13.637Z,85.80
2023-01-19T14:11:02.448Z,81.85
2023-01-19T14:13:43.379Z,66.53
2023-01-19T14:16:17.850Z,60.13
2023-01-19T14:18:45.042Z,52.38
2023-01-19T14:21:14.735Z,66.72
2023-01-19T14:24:19.083Z,66.30
2023-01-19T14:26:51.461Z,35.20
2023-01-19T14:29:32.596Z,48.67
2023-01-19T14:32:16.643Z,33.55
2023-01-19T14:35:04.760Z,71.20
2023-01-19T14:37:35.495Z,42.10
2023-01-19T14:42:39.278Z,70.13
2023-01-19T14:45:16.261Z,43.33
2023-01-19T14:47:45.076Z,50.13
2023-01-19T14:50:23.648Z,55.30
2023-01-19T14:53:01.060Z,63.65
2023-01-19T14:55:56.994Z,58.00
2023-01-19T14:58:26.891Z,52.13
2023-01-19T15:00:56.853Z,69.22
2023-01-19T15:09:50.157Z,57.63
2023-01-19T15:12:20.868Z,57.28
2023-01-19T15:14:47.992Z,67.47
2023-01-19T15:17:25.807Z,67.32
2023-01-19T15:19:54.551Z,60.10
2023-01-19T15:22:22.859Z,38.22
2023-01-19T15:24:50.124Z,35.53
2023-01-19T15:27:17.617Z,36.20
2023-01-19T15:29:57.984Z,32.08
2023-01-19T15:39:07.366Z,71.55
2023-01-19T15:48:45.752Z,53.88
2023-01-19T15:51:18.325Z,31.55
2023-01-19T15:53:46.665Z,68.90
2023-01-19T15:56:25.698Z,59.85
2023-01-19T15:58:53.982Z,38.13
2023-01-19T16:01:32.220Z,65.93
2023-01-19T16:04:01.557Z,85.60
2023-01-19T16:06:30.891Z,69.23
2023-01-19T16:09:03.991Z,64.88
2023-01-19T16:11:35.234Z,78.88
2023-01-19T16:30:09.400Z,60.33
2023-01-19T16:32:42.922Z,77.30
2023-01-19T16:38:45.372Z,90.32
2023-01-19T16:41:28.628Z,87.03
2023-01-19T16:43:58.422Z,35.35
2023-01-19T16:46:28.141Z,64.07
2023-01-19T16:49:00.844Z,80.07
2023-01-19T16:51:28.113Z,36.88
2023-01-19T16:53:55.580Z,64.47
2023-01-19T16:56:22.635Z,89.82
2023-01-19T16:58:57.888Z,94.05
2023-01-19T17:01:26.994Z,105.43
2023-01-19T17:04:00.197Z,99.75
2023-01-19T17:06:28.431Z,107.05
2023-01-19T17:08:55.729Z,80.32
2023-01-19T17:11:32.887Z,117.22
2023-01-19T17:14:04.198Z,54.20
2023-01-19T17:16:33.868Z,125.90
2023-01-19T17:19:02.603Z,90.97
2023-01-19T17:21:30.255Z,92.55
2023-01-19T17:23:58.300Z,125.00
2023-01-19T17:26:28.392Z,127.05
2023-01-19T17:29:00.729Z,130.00
2023-01-19T17:31:28.484Z,88.50
2023-01-19T17:33:55.911Z,138.45
2023-01-19T17:36:25.452Z,125.28
2023-01-19T17:38:57.671Z,123.65
2023-01-19T17:41:30.309Z,93.18
2023-01-19T17:44:00.681Z,134.95
2023-01-19T17:48:58.161Z,71.90
2023-01-19T17:51:26.773Z,149.43
2023-01-19T17:53:55.189Z,44.47
2023-01-19T17:56:29.889Z,78.45
2023-01-19T17:58:58.239Z,104.25
2023-01-19T18:01:27.876Z,63.97
2023-01-19T18:03:55.507Z,123.75
2023-01-19T18:06:22.869Z,74.75
2023-01-19T18:08:50.119Z,145.80
2023-01-19T18:11:19.358Z,98.03
2023-01-19T18:13:48.510Z,97.85
2023-01-19T18:16:18.742Z,86.88
2023-01-19T18:18:45.957Z,140.35
2023-01-19T18:21:14.984Z,128.60
2023-01-19T18:23:43.554Z,139.05
2023-01-19T18:26:14.255Z,53.47
2023-01-19T18:28:41.276Z,142.30
2023-01-19T18:31:10.938Z,114.97
2023-01-19T18:33:39.089Z,140.18
2023-01-19T18:36:06.649Z,157.55
2023-01-19T18:38:35.406Z,116.47
2023-01-19T18:41:14.271Z,134.07
2023-01-19T18:43:41.383Z,133.45
2023-01-19T18:46:08.889Z,125.75
2023-01-19T18:48:37.506Z,73.97
2023-01-19T18:51:09.836Z,140.70
2023-01-19T18:53:37.347Z,149.40
2023-01-19T18:56:05.395Z,146.63
2023-01-19T18:58:33.685Z,109.45
2023-01-19T19:01:01.476Z,85.63
2023-01-19T19:03:29.280Z,132.02
2023-01-19T19:05:56.761Z,140.65
2023-01-19T19:08:23.917Z,120.35
2023-01-19T19:10:51.338Z,68.35
2023-01-19T19:13:21.821Z,106.05
2023-01-19T19:18:16.475Z,52.13
2023-01-19T19:20:43.904Z,113.50
2023-01-19T19:23:11.945Z,126.40
2023-01-19T19:25:39.268Z,79.75
2023-01-19T19:28:07.270Z,59.03
2023-01-19T19:30:37.911Z,66.45
2023-01-19T19:33:05.264Z,143.80
2023-01-19T19:35:32.445Z,55.00
2023-01-19T19:38:02.916Z,132.13
2023-01-19T19:40:30.345Z,113.20
2023-01-19T19:42:58.850Z,139.85
2023-01-19T19:45:26.557Z,130.88
2023-01-19T19:47:53.607Z,133.73
2023-01-19T19:50:20.556Z,104.85
2023-01-19T19:52:47.724Z,133.77
2023-01-19T19:55:15.087Z,86.28
2023-01-19T19:57:42.272Z,68.97
2023-01-19T20:00:10.178Z,108.47
2023-01-19T20:02:37.581Z,129.30
2023-01-19T20:05:05.291Z,83.13
2023-01-19T20:07:33.040Z,122.22
2023-01-19T20:10:00.326Z,133.38
2023-01-19T20:12:27.647Z,92.65
2023-01-19T20:14:54.652Z,122.68
2023-01-19T20:17:23.313Z,88.18
2023-01-19T20:19:51.111Z,123.25
2023-01-19T20:22:18.557Z,129.07
2023-01-19T20:24:46.157Z,116.18
2023-01-19T20:27:13.175Z,134.20
2023-01-19T20:29:40.197Z,122.38
2023-01-19T20:32:08.048Z,70.80
2023-01-19T20:34:36.048Z,125.80
2023-01-19T20:37:05.279Z,93.28
2023-01-19T20:39:34.678Z,63.17
2023-01-19T20:42:02.236Z,73.70
2023-01-19T20:44:29.364Z,71.40
2023-01-19T20:49:51.437Z,75.65
2023-01-19T20:52:18.607Z,60.53
2023-01-19T20:54:45.724Z,112.00
2023-01-19T20:57:13.144Z,109.28
2023-01-19T20:59:41.101Z,71.82
2023-01-19T21:02:14.370Z,112.28
2023-01-19T21:04:41.716Z,111.32
2023-01-19T21:07:09.262Z,101.95
2023-01-19T21:09:37.805Z,64.20
2023-01-19T21:12:05.335Z,43.67
2023-01-19T21:14:32.818Z,84.32
2023-01-19T21:16:59.850Z,79.13
2023-01-19T21:19:26.906Z,64.53
2023-01-19T21:21:55.461Z,91.20
2023-01-19T21:24:22.645Z,97.40
2023-01-19T21:26:50.049Z,80.97
2023-01-19T21:29:17.057Z,70.53
2023-01-19T21:31:44.126Z,75.38
2023-01-19T21:34:11.928Z,69.90
2023-01-19T21:36:39.265Z,81.57
2023-01-19T21:39:09.668Z,39.35
2023-01-19T21:41:39.889Z,50.53
2023-01-19T21:44:07.067Z,77.55
2023-01-19T21:46:34.228Z,58.08
2023-01-19T21:49:04.951Z,69.65
2023-01-19T21:51:36.737Z,89.68
2023-01-19T21:54:06.044Z,74.55
2023-01-19T21:56:33.841Z,64.38
2023-01-19T21:59:04.515Z,51.85
2023-01-19T22:01:33.054Z,93.55
2023-01-19T22:04:00.548Z,94.10
2023-01-19T22:06:28.305Z,54.88
2023-01-19T22:08:58.489Z,91.07
2023-01-19T22:11:25.697Z,48.38
2023-01-19T22:13:53.635Z,87.65
2023-01-19T22:16:22.915Z,89.05
2023-01-19T22:18:54.066Z,85.15
2023-01-19T22:21:23.701Z,44.17
2023-01-19T22:23:56.226Z,65.77
2023-01-19T22:26:23.736Z,62.28
2023-01-19T22:28:54.437Z,67.45
2023-01-19T22:31:22.774Z,54.75
2023-01-19T22:33:51.033Z,82.90
2023-01-19T22:36:22.338Z,70.50
2023-01-19T22:38:52.103Z,40.22
2023-01-19T22:41:21.942Z,81.78
2023-01-19T22:43:50.623Z,55.33
2023-01-19T22:46:19.693Z,74.68
2023-01-19T22:48:48.505Z,50.42
2023-01-19T22:51:16.534Z,39.30
2023-01-19T22:53:43.681Z,60.13
2023-01-19T22:56:21.985Z,42.03
2023-01-19T22:58:49.595Z,43.00
2023-01-19T23:01:22.745Z,63.83
2023-01-19T23:03:50.493Z,41.47
2023-01-19T23:06:19.936Z,39.20
2023-01-19T23:08:47.493Z,41.60
2023-01-19T23:11:23.313Z,42.80
2023-01-19T23:13:51.214Z,67.55
2023-01-19T23:16:18.600Z,53.97
2023-01-19T23:18:46.670Z,38.13
2023-01-19T23:21:17.235Z,43.70
2023-01-19T23:23:45.334Z,52.00
2023-01-19T23:26:18.464Z,40.47
2023-01-19T23:28:46.679Z,54.70
2023-01-19T23:31:24.340Z,63.50
2023-01-19T23:33:54.005Z,59.08
2023-01-19T23:36:22.869Z,66.45
2023-01-19T23:39:01.678Z,59.78
2023-01-19T23:41:31.401Z,53.00
2023-01-19T23:43:58.765Z,44.65
2023-01-19T23:46:25.935Z,32.55
2023-01-19T23:48:53.377Z,53.10
2023-01-19T23:51:21.841Z,63.85
2023-01-19T23:53:49.770Z,69.40
2023-01-19T23:56:28.378Z,64.88
2023-01-19T23:59:00.455Z,56.45
